Time;durP1;ratioP1;P1;durP2;ratioP2;P2;SDS_P1;SDS_P2;PMS_P1;PMS_P2;Temp;Humidity;BMP_temperature;BMP_pressure;BME280_temperature;BME280_humidity;BME280_pressure;Samples;Min_cycle;Max_cycle;Signal;HPM_P1;HPM_P2
2021/04/12 00:00:14;;;;;;;5.75;2.80;;;0.40;93.50;;;;;;5049318;28;20041;-72
2021/04/12 00:02:48;;;;;;;5.23;3.20;;;0.40;93.40;;;;;;5041911;28;20052;-72
2021/04/12 00:05:35;;;;;;;4.47;3.03;;;0.40;93.70;;;;;;5045010;28;20730;-72
2021/04/12 00:08:24;;;;;;;7.95;3.70;;;0.30;93.50;;;;;;5047253;28;20092;-72
2021/04/12 00:11:25;;;;;;;6.43;3.05;;;0.30;93.60;;;;;;5049253;28;20195;-72
2021/04/12 00:14:08;;;;;;;7.85;3.30;;;0.30;93.80;;;;;;5025862;28;20049;-72
2021/04/12 00:16:57;;;;;;;4.80;3.15;;;0.30;94.20;;;;;;5030236;28;20044;-72
2021/04/12 00:19:45;;;;;;;7.32;3.55;;;0.30;93.60;;;;;;5048754;28;20033;-72
2021/04/12 00:22:17;;;;;;;6.88;3.40;;;0.30;93.50;;;;;;5045419;28;20095;-72
2021/04/12 00:24:54;;;;;;;8.20;3.20;;;0.30;93.70;;;;;;5029758;28;20033;-72
2021/04/12 00:27:32;;;;;;;5.45;2.95;;;0.30;93.60;;;;;;5048259;28;20049;-72
2021/04/12 00:30:22;;;;;;;3.95;3.00;;;0.20;93.70;;;;;;5049059;28;20507;-72
2021/04/12 00:33:04;;;;;;;4.97;3.00;;;0.20;93.70;;;;;;5048413;28;20044;-72
2021/04/12 00:35:42;;;;;;;6.07;3.83;;;0.20;93.80;;;;;;5047324;28;20095;-72
2021/04/12 00:38:15;;;;;;;10.35;3.13;;;0.20;93.90;;;;;;5046646;28;20533;-72
2021/04/12 00:40:55;;;;;;;4.25;3.30;;;0.20;93.70;;;;;;5029732;28;20120;-72
2021/04/12 00:43:39;;;;;;;6.53;3.17;;;0.20;93.70;;;;;;5048319;28;20202;-72
2021/04/12 00:46:26;;;;;;;5.03;3.08;;;0.20;93.70;;;;;;5048320;28;20043;-72
2021/04/12 00:49:14;;;;;;;7.53;3.50;;;0.20;93.60;;;;;;5036277;28;20474;-72
2021/04/12 00:51:45;;;;;;;3.55;3.25;;;0.20;93.70;;;;;;5044549;28;20094;-72
2021/04/12 00:54:36;;;;;;;5.13;3.07;;;0.20;93.80;;;;;;5048535;28;20052;-72
2021/04/12 00:57:34;;;;;;;6.57;3.50;;;0.20;93.90;;;;;;5045526;28;20399;-72
2021/04/12 01:00:28;;;;;;;6.55;3.20;;;0.20;93.90;;;;;;5047264;28;20056;-72
2021/04/12 01:03:24;;;;;;;4.88;3.00;;;0.20;93.90;;;;;;5063679;28;20064;-72
2021/04/12 01:06:06;;;;;;;7.50;3.30;;;0.30;93.90;;;;;;5046235;28;20037;-72
2021/04/12 01:08:56;;;;;;;5.13;3.22;;;0.30;94.10;;;;;;5045875;28;20037;-72
2021/04/12 01:12:05;;;;;;;5.38;3.53;;;0.30;94.10;;;;;;5046489;28;20116;-72
2021/04/12 01:15:05;;;;;;;5.15;3.33;;;0.30;93.60;;;;;;5046327;28;20033;-72
2021/04/12 01:17:51;;;;;;;4.22;3.35;;;0.30;93.90;;;;;;5047441;28;20037;-72
2021/04/12 01:20:45;;;;;;;5.05;3.30;;;0.30;93.90;;;;;;5046498;28;20033;-72
2021/04/12 01:23:32;;;;;;;7.75;3.60;;;0.30;93.90;;;;;;5061325;28;20040;-72
2021/04/12 01:26:36;;;;;;;7.07;3.47;;;0.20;93.50;;;;;;5046966;28;20049;-72
2021/04/12 01:29:42;;;;;;;7.30;2.78;;;0.20;93.60;;;;;;5047376;28;20037;-72
2021/04/12 01:32:48;;;;;;;4.82;3.55;;;0.20;93.70;;;;;;5045545;28;20037;-72
2021/04/12 01:35:38;;;;;;;4.55;3.00;;;0.20;93.80;;;;;;5047076;28;20033;-71
2021/04/12 01:38:28;;;;;;;7.95;3.17;;;0.20;93.80;;;;;;5042075;28;20036;-71
2021/04/12 01:41:11;;;;;;;5.13;2.95;;;0.10;93.70;;;;;;5079228;22;20114;-69
2021/04/12 01:44:17;;;;;;;4.70;3.17;;;0.10;93.80;;;;;;5088677;28;20493;-69
2021/04/12 01:46:58;;;;;;;5.13;2.90;;;0.10;93.80;;;;;;5087555;28;20094;-69
2021/04/12 01:49:42;;;;;;;5.93;3.38;;;0.10;93.80;;;;;;5088579;28;20477;-69
2021/04/12 01:52:52;;;;;;;7.50;3.50;;;0.10;93.60;;;;;;5083064;28;20118;-69
2021/04/12 01:55:27;;;;;;;6.78;3.20;;;0.00;94.00;;;;;;5085916;28;20093;-70
2021/04/12 01:58:20;;;;;;;5.90;3.40;;;0.10;93.70;;;;;;5088299;28;20039;-70
2021/04/12 02:00:54;;;;;;;7.82;3.38;;;0.00;93.60;;;;;;5087815;28;20512;-70
2021/04/12 02:03:35;;;;;;;7.05;3.13;;;0.00;93.60;;;;;;5088260;28;20126;-70
2021/04/12 02:06:01;;;;;;;9.25;3.40;;;0.00;93.60;;;;;;5088169;28;20400;-70
2021/04/12 02:08:43;;;;;;;6.80;3.47;;;0.00;93.70;;;;;;5088882;28;20041;-70
2021/04/12 02:11:19;;;;;;;5.07;3.08;;;0.00;93.90;;;;;;5067209;28;20123;-70
2021/04/12 02:14:17;;;;;;;7.18;2.90;;;-0.10;93.80;;;;;;5092115;28;20043;-70
2021/04/12 02:16:59;;;;;;;7.15;3.10;;;-0.10;94.30;;;;;;5078427;28;20028;-70
2021/04/12 02:19:28;;;;;;;6.80;3.22;;;-0.10;93.80;;;;;;5073382;28;20466;-70
2021/04/12 02:22:12;;;;;;;7.40;3.65;;;-0.10;93.90;;;;;;5075494;28;20086;-70
2021/04/12 02:24:51;;;;;;;6.03;3.10;;;-0.10;93.90;;;;;;5090776;28;20047;-70
2021/04/12 02:27:22;;;;;;;5.18;3.10;;;-0.10;94.00;;;;;;5091559;28;20040;-70
2021/04/12 02:29:57;;;;;;;4.50;3.10;;;-0.10;94.00;;;;;;5090986;28;20036;-70
2021/04/12 02:32:41;;;;;;;5.93;3.22;;;-0.10;94.00;;;;;;5091481;28;20044;-70
2021/04/12 02:35:16;;;;;;;7.75;3.33;;;-0.10;93.80;;;;;;5083408;28;20054;-70
2021/04/12 02:37:51;;;;;;;4.45;2.95;;;-0.10;94.00;;;;;;5091284;28;20032;-70
2021/04/12 02:40:28;;;;;;;5.47;3.28;;;-0.10;93.90;;;;;;5087858;28;20112;-70
2021/04/12 02:43:24;;;;;;;4.28;2.85;;;-0.20;93.90;;;;;;5071067;28;20056;-70
2021/04/12 02:46:17;;;;;;;6.95;3.05;;;-0.20;93.80;;;;;;5034312;28;20058;-70
2021/04/12 02:49:22;;;;;;;2.83;2.55;;;-0.20;93.80;;;;;;5083325;28;20386;-70
2021/04/12 02:52:18;;;;;;;4.72;3.22;;;-0.20;93.90;;;;;;4988107;28;20512;-70
2021/04/12 02:54:59;;;;;;;4.20;3.00;;;-0.20;93.90;;;;;;5002093;28;20580;-70
2021/04/12 02:57:56;;;;;;;6.88;3.13;;;-0.20;93.80;;;;;;5047767;28;20041;-70
2021/04/12 03:00:48;;;;;;;7.43;3.20;;;-0.30;93.60;;;;;;5075702;28;20041;-70
2021/04/12 03:03:35;;;;;;;6.93;3.90;;;-0.30;93.60;;;;;;5079016;28;20063;-70
2021/04/12 03:06:42;;;;;;;6.20;2.90;;;-0.30;94.10;;;;;;5080584;28;20055;-70
2021/04/12 03:09:29;;;;;;;9.20;3.70;;;-0.30;94.00;;;;;;5067995;28;20464;-70
2021/04/12 03:12:18;;;;;;;6.93;3.53;;;-0.30;94.10;;;;;;5070845;28;20041;-70
2021/04/12 03:15:16;;;;;;;5.90;3.45;;;-0.30;94.00;;;;;;5070426;28;20045;-70
2021/04/12 03:18:08;;;;;;;4.95;3.47;;;-0.30;94.00;;;;;;5077449;28;20047;-70
2021/04/12 03:20:36;;;;;;;4.63;3.20;;;-0.30;93.90;;;;;;5057346;28;20032;-70
2021/04/12 03:23:28;;;;;;;6.35;3.60;;;-0.30;93.90;;;;;;5070106;28;20511;-70
2021/04/12 03:26:04;;;;;;;6.53;2.88;;;-0.30;94.00;;;;;;5070105;28;20055;-70
2021/04/12 03:28:51;;;;;;;6.80;3.63;;;-0.30;94.00;;;;;;5069776;28;20037;-70
2021/04/12 03:31:42;;;;;;;5.03;3.05;;;-0.20;94.00;;;;;;5055337;28;20040;-70
2021/04/12 03:34:27;;;;;;;5.17;3.50;;;-0.20;94.00;;;;;;5052341;28;20048;-70
2021/04/12 03:37:18;;;;;;;3.88;3.22;;;-0.20;93.90;;;;;;5076296;28;20035;-70
2021/04/12 03:39:48;;;;;;;6.22;3.50;;;-0.30;93.90;;;;;;5067427;28;20060;-70
2021/04/12 03:42:51;;;;;;;5.18;3.25;;;-0.30;93.80;;;;;;5066367;28;20043;-70
2021/04/12 03:46:00;;;;;;;5.88;3.15;;;-0.30;93.80;;;;;;5070856;28;20156;-70
2021/04/12 03:48:47;;;;;;;4.40;3.00;;;-0.30;93.90;;;;;;5059773;28;20366;-70
2021/04/12 03:51:37;;;;;;;7.35;3.38;;;-0.30;93.80;;;;;;5069769;28;20067;-71
2021/04/12 03:54:18;;;;;;;6.78;3.63;;;-0.40;93.70;;;;;;5066649;28;20378;-70
2021/04/12 03:57:05;;;;;;;6.53;3.33;;;-0.40;94.00;;;;;;5045128;28;20033;-70
2021/04/12 04:00:04;;;;;;;7.35;3.55;;;-0.40;93.90;;;;;;5065399;28;20063;-69
2021/04/12 04:02:40;;;;;;;6.32;3.60;;;-0.40;93.90;;;;;;5069720;28;20051;-69
2021/04/12 04:05:49;;;;;;;5.90;3.55;;;-0.40;93.80;;;;;;5083832;28;20039;-69
2021/04/12 04:08:29;;;;;;;4.10;2.95;;;-0.50;93.70;;;;;;5080918;28;20037;-69
2021/04/12 04:11:25;;;;;;;6.90;3.47;;;-0.50;93.70;;;;;;5052285;28;20045;-69
2021/04/12 04:13:56;;;;;;;4.85;3.00;;;-0.40;93.90;;;;;;5063133;28;20071;-69
2021/04/12 04:16:50;;;;;;;4.72;2.97;;;-0.40;93.90;;;;;;5077506;28;20501;-69
2021/04/12 04:19:46;;;;;;;5.93;3.40;;;-0.50;94.10;;;;;;5068364;28;20448;-69
2021/04/12 04:22:46;;;;;;;5.78;3.55;;;-0.50;93.70;;;;;;5063815;28;20353;-69
2021/04/12 04:25:36;;;;;;;3.38;2.70;;;-0.50;93.60;;;;;;5066296;28;20071;-69
2021/04/12 04:28:11;;;;;;;7.13;2.90;;;-0.50;93.80;;;;;;5044154;28;20037;-69
2021/04/12 04:30:55;;;;;;;6.47;3.13;;;-0.50;93.90;;;;;;5067877;28;20523;-69
2021/04/12 04:33:43;;;;;;;7.53;3.60;;;-0.50;94.20;;;;;;5059870;28;20197;-69
2021/04/12 04:36:38;;;;;;;6.90;4.25;;;-0.60;94.10;;;;;;5067709;28;20434;-69
2021/04/12 04:39:22;;;;;;;10.10;3.88;;;-0.50;94.40;;;;;;5066396;28;20036;-69
2021/04/12 04:42:10;;;;;;;9.60;5.22;;;-0.40;94.60;;;;;;5085203;28;20052;-69
2021/04/12 04:45:26;;;;;;;6.20;4.55;;;-0.20;95.10;;;;;;5087541;28;20040;-69
2021/04/12 04:48:29;;;;;;;5.18;4.20;;;-0.10;94.70;;;;;;5053359;28;20558;-69
2021/04/12 04:51:13;;;;;;;7.35;4.93;;;0.00;95.00;;;;;;5080725;28;20044;-69
2021/04/12 04:54:13;;;;;;;9.63;7.30;;;0.20;94.70;;;;;;5087032;28;20036;-69
2021/04/12 04:56:57;;;;;;;10.23;6.32;;;0.20;94.40;;;;;;5084153;28;20055;-69
2021/04/12 04:59:47;;;;;;;7.10;6.40;;;0.30;94.70;;;;;;5086669;28;20082;-69
2021/04/12 05:02:15;;;;;;;6.32;5.18;;;0.40;94.40;;;;;;5085881;28;20036;-69
2021/04/12 05:05:20;;;;;;;7.05;3.97;;;0.50;94.40;;;;;;5087542;28;20367;-69
2021/04/12 05:08:07;;;;;;;7.93;3.58;;;0.50;94.40;;;;;;5086462;28;20046;-68
2021/04/12 05:10:40;;;;;;;8.65;5.38;;;0.60;94.50;;;;;;5081699;28;20121;-67
2021/04/12 05:13:32;;;;;;;4.90;3.33;;;0.70;94.40;;;;;;5087718;28;20036;-68
2021/04/12 05:15:58;;;;;;;;;;;0.70;94.20;;;;;;5065825;28;20047;-68
2021/04/12 05:18:53;;;;;;;10.32;2.97;;;0.70;93.70;;;;;;5087826;28;19920;-68
2021/04/12 05:21:45;;;;;;;3.90;3.20;;;0.70;93.70;;;;;;5087969;28;20473;-68
2021/04/12 05:24:31;;;;;;;4.72;3.00;;;0.70;93.60;;;;;;5085861;28;20036;-68
2021/04/12 05:27:06;;;;;;;5.05;2.70;;;0.70;94.00;;;;;;5070077;28;20054;-68
2021/04/12 05:30:09;;;;;;;5.85;2.60;;;0.80;93.90;;;;;;5087831;28;20477;-68
2021/04/12 05:33:02;;;;;;;6.18;2.58;;;0.80;93.70;;;;;;5084926;28;20082;-68
2021/04/12 05:35:53;;;;;;;4.35;2.15;;;0.80;93.60;;;;;;5062125;28;20040;-68
2021/04/12 05:38:30;;;;;;;6.50;2.20;;;0.80;93.40;;;;;;5021681;28;20512;-68
2021/04/12 05:41:18;;;;;;;3.55;2.45;;;0.90;93.80;;;;;;5072271;28;20060;-68
2021/04/12 05:44:01;;;;;;;2.65;2.05;;;1.00;93.70;;;;;;5064849;28;20359;-68
2021/04/12 05:46:45;;;;;;;3.58;1.98;;;1.10;93.90;;;;;;5070495;28;20044;-68
2021/04/12 05:49:37;;;;;;;3.38;1.95;;;2.20;93.70;;;;;;5072331;28;20640;-69
2021/04/12 05:52:31;;;;;;;3.50;1.55;;;4.10;91.50;;;;;;5071810;28;20473;-69
2021/04/12 05:55:19;;;;;;;3.70;2.05;;;5.60;86.80;;;;;;5072511;28;20052;-70
2021/04/12 05:58:04;;;;;;;3.33;1.17;;;6.90;79.90;;;;;;5073463;28;20036;-69
2021/04/12 06:00:56;;;;;;;2.60;1.65;;;7.70;72.80;;;;;;5071912;28;20389;-69
2021/04/12 06:03:52;;;;;;;1.80;1.48;;;8.60;76.40;;;;;;5071704;28;20041;-69
2021/04/12 06:06:39;;;;;;;5.22;1.65;;;9.50;67.10;;;;;;5049044;28;20032;-69
2021/04/12 06:09:29;;;;;;;2.90;1.45;;;10.10;75.50;;;;;;5072387;28;20050;-69
2021/04/12 06:12:25;;;;;;;1.77;1.25;;;10.80;63.50;;;;;;5070580;28;20067;-69
2021/04/12 06:15:07;;;;;;;4.68;1.58;;;11.50;62.70;;;;;;5067260;28;20095;-69
2021/04/12 06:17:36;;;;;;;2.72;1.35;;;12.10;60.40;;;;;;5054046;28;20028;-69
2021/04/12 06:20:33;;;;;;;4.22;1.13;;;12.60;67.10;;;;;;5072122;28;20433;-70
2021/04/12 06:23:34;;;;;;;2.67;1.50;;;13.00;64.70;;;;;;5071856;28;20043;-70
2021/04/12 06:26:46;;;;;;;3.40;1.10;;;13.30;56.50;;;;;;5071073;28;20033;-70
2021/04/12 06:29:34;;;;;;;3.05;1.13;;;13.60;51.00;;;;;;5072158;28;20064;-69
2021/04/12 06:32:28;;;;;;;1.50;1.40;;;14.20;57.60;;;;;;5071749;28;20040;-70
2021/04/12 06:35:03;;;;;;;3.80;1.33;;;14.00;54.70;;;;;;5070620;28;20162;-70
2021/04/12 06:37:57;;;;;;;4.10;0.93;;;14.40;60.90;;;;;;5068872;28;20553;-70
2021/04/12 06:40:50;;;;;;;3.55;1.15;;;14.80;56.10;;;;;;5074789;28;20048;-70
2021/04/12 06:43:45;;;;;;;2.85;0.85;;;14.90;54.30;;;;;;5091492;28;20055;-70
2021/04/12 06:46:23;;;;;;;3.65;1.23;;;15.00;57.10;;;;;;5071784;28;20040;-70
2021/04/12 06:48:48;;;;;;;2.55;0.85;;;15.30;58.00;;;;;;5088947;28;20062;-70
2021/04/12 06:51:33;;;;;;;2.22;0.70;;;15.60;58.20;;;;;;5090580;28;20469;-70
2021/04/12 06:54:36;;;;;;;2.95;0.90;;;15.90;54.10;;;;;;5070393;28;20035;-70
2021/04/12 06:57:17;;;;;;;1.50;0.90;;;15.80;52.80;;;;;;5070715;28;20054;-70
2021/04/12 07:00:04;;;;;;;2.42;1.08;;;15.90;52.50;;;;;;5091354;28;20043;-70
2021/04/12 07:02:48;;;;;;;2.72;0.90;;;15.90;52.30;;;;;;5089019;28;20032;-70
2021/04/12 07:05:20;;;;;;;2.90;1.05;;;16.20;52.60;;;;;;5087762;28;20155;-69
2021/04/12 07:08:03;;;;;;;2.45;1.10;;;16.40;53.90;;;;;;5089033;28;20042;-69
2021/04/12 07:11:00;;;;;;;3.78;1.17;;;16.50;46.60;;;;;;5089786;28;20111;-69
2021/04/12 07:14:03;;;;;;;1.40;1.02;;;16.80;46.60;;;;;;5053325;28;20111;-69
2021/04/12 07:17:07;;;;;;;2.45;0.90;;;17.10;52.60;;;;;;5064811;28;20055;-69
2021/04/12 07:19:50;;;;;;;2.47;0.73;;;17.20;50.90;;;;;;5089862;28;20032;-69
2021/04/12 07:22:27;;;;;;;14.38;1.65;;;17.10;44.10;;;;;;5089712;28;20531;-70
2021/04/12 07:25:17;;;;;;;3.60;1.10;;;16.80;48.70;;;;;;5090454;28;20043;-69
2021/04/12 07:28:12;;;;;;;3.03;1.30;;;17.00;48.40;;;;;;5087104;28;20570;-69
2021/04/12 07:31:16;;;;;;;3.00;0.90;;;16.90;47.10;;;;;;5058706;28;20119;-69
2021/04/12 07:34:25;;;;;;;3.72;1.33;;;16.90;42.10;;;;;;5075050;28;20371;-69
2021/04/12 07:37:06;;;;;;;2.58;0.85;;;16.30;42.80;;;;;;5090250;28;20062;-69
2021/04/12 07:39:40;;;;;;;4.78;1.00;;;16.30;46.50;;;;;;5090150;28;20047;-69
2021/04/12 07:42:15;;;;;;;3.70;1.27;;;16.00;47.70;;;;;;5072001;28;20732;-69
2021/04/12 07:45:13;;;;;;;4.25;1.10;;;15.70;49.70;;;;;;5089187;28;20028;-69
2021/04/12 07:48:14;;;;;;;2.90;0.98;;;14.40;46.30;;;;;;5090891;28;20117;-69
2021/04/12 07:51:07;;;;;;;3.97;1.00;;;13.60;51.90;;;;;;5088594;28;20093;-69
2021/04/12 07:54:11;;;;;;;4.18;1.10;;;12.30;53.00;;;;;;5090163;28;20040;-69
2021/04/12 07:57:06;;;;;;;3.75;1.25;;;11.20;57.80;;;;;;5071790;28;20460;-69
2021/04/12 08:00:17;;;;;;;3.80;0.85;;;10.50;58.00;;;;;;5055626;28;20052;-68
2021/04/12 08:03:03;;;;;;;2.83;0.80;;;9.90;62.50;;;;;;5068809;28;20052;-68
2021/04/12 08:05:47;;;;;;;2.78;1.15;;;9.50;64.60;;;;;;5089559;28;20044;-68
2021/04/12 08:08:54;;;;;;;3.25;0.80;;;9.40;64.50;;;;;;5089977;28;20036;-68
2021/04/12 08:11:57;;;;;;;3.03;0.88;;;9.00;60.90;;;;;;5089337;28;20043;-68
2021/04/12 08:14:42;;;;;;;4.20;1.08;;;8.70;62.30;;;;;;5086996;28;20028;-68
2021/04/12 08:17:37;;;;;;;2.13;0.75;;;8.40;62.70;;;;;;5086317;28;20039;-68
2021/04/12 08:20:15;;;;;;;5.50;1.00;;;8.30;68.80;;;;;;5089959;28;20036;-68
2021/04/12 08:23:00;;;;;;;1.90;0.77;;;8.30;67.50;;;;;;5089787;28;20040;-69
2021/04/12 08:25:58;;;;;;;1.73;0.85;;;8.50;66.80;;;;;;5089244;28;20032;-68
2021/04/12 08:29:02;;;;;;;4.93;1.00;;;8.70;63.30;;;;;;5070990;28;20320;-69
2021/04/12 08:32:06;;;;;;;7.35;1.00;;;8.60;64.70;;;;;;5086304;28;20036;-68
2021/04/12 08:34:38;;;;;;;4.82;0.88;;;8.70;64.40;;;;;;5071794;28;20114;-68
2021/04/12 08:37:30;;;;;;;2.40;0.90;;;8.90;64.60;;;;;;5089726;28;20040;-68
2021/04/12 08:40:08;;;;;;;;;;;9.00;64.50;;;;;;5089453;28;20043;-68
2021/04/12 08:42:55;;;;;;;4.97;1.15;;;8.90;64.10;;;;;;5089179;28;19928;-68
2021/04/12 08:45:44;;;;;;;2.97;0.80;;;8.70;65.80;;;;;;5089417;28;20044;-68
2021/04/12 08:48:46;;;;;;;3.95;0.85;;;8.70;61.50;;;;;;5089154;28;20485;-68
2021/04/12 08:51:36;;;;;;;3.85;0.85;;;8.50;61.20;;;;;;5084542;28;20085;-68
2021/04/12 08:54:20;;;;;;;1.80;0.57;;;8.30;64.10;;;;;;5069531;28;20075;-68
2021/04/12 08:57:06;;;;;;;4.97;0.80;;;8.30;66.70;;;;;;5069409;28;20043;-68
2021/04/12 09:00:01;;;;;;;5.50;1.27;;;8.20;65.30;;;;;;5069302;28;20032;-68
2021/04/12 09:02:44;;;;;;;4.32;1.25;;;8.40;67.10;;;;;;5059202;28;20366;-69
2021/04/12 09:05:18;;;;;;;2.15;0.55;;;8.70;62.80;;;;;;5086598;28;20078;-68
2021/04/12 09:07:57;;;;;;;3.20;0.50;;;9.00;62.30;;;;;;5073622;28;20050;-68
2021/04/12 09:10:35;;;;;;;2.30;0.60;;;8.90;59.90;;;;;;5071592;28;20060;-67
2021/04/12 09:13:41;;;;;;;2.75;0.75;;;9.10;64.60;;;;;;5089050;28;20046;-67
2021/04/12 09:16:33;;;;;;;2.17;0.70;;;9.40;62.70;;;;;;5069255;28;20381;-66
2021/04/12 09:19:16;;;;;;;2.63;0.68;;;9.80;59.50;;;;;;5066431;28;20207;-66
2021/04/12 09:21:51;;;;;;;8.18;1.08;;;9.60;53.90;;;;;;5106568;28;20043;-66
2021/04/12 09:24:35;;;;;;;3.53;0.88;;;9.00;59.60;;;;;;5102222;28;20365;-66
2021/04/12 09:27:32;;;;;;;2.03;0.80;;;8.60;61.00;;;;;;5108100;28;20043;-66
2021/04/12 09:30:25;;;;;;;2.47;0.60;;;8.10;66.70;;;;;;5087500;28;20043;-66
2021/04/12 09:33:12;;;;;;;1.73;0.70;;;7.70;67.70;;;;;;5110587;28;20129;-66
2021/04/12 09:36:16;;;;;;;2.30;0.70;;;7.40;67.80;;;;;;5107216;28;20040;-66
2021/04/12 09:39:05;;;;;;;1.48;0.45;;;6.80;71.10;;;;;;5108450;28;20084;-66
2021/04/12 09:42:15;;;;;;;1.80;0.40;;;6.60;72.80;;;;;;5105226;28;20370;-66
2021/04/12 09:45:18;;;;;;;2.03;0.50;;;6.50;72.90;;;;;;5098070;28;20040;-65
2021/04/12 09:48:02;;;;;;;2.28;0.70;;;6.10;74.50;;;;;;5106674;28;20043;-66
2021/04/12 09:50:47;;;;;;;2.38;0.60;;;5.80;75.80;;;;;;5104749;28;20035;-66
2021/04/12 09:53:22;;;;;;;1.75;0.40;;;5.80;75.90;;;;;;5107558;28;20092;-66
2021/04/12 09:56:32;;;;;;;2.00;0.40;;;5.90;75.30;;;;;;5108623;28;20520;-66
2021/04/12 09:59:46;;;;;;;0.90;0.50;;;6.10;75.10;;;;;;5095725;28;20561;-66
2021/04/12 10:02:39;;;;;;;2.03;0.50;;;6.20;75.40;;;;;;5009456;28;20413;-66
2021/04/12 10:05:23;;;;;;;2.60;0.80;;;6.60;77.20;;;;;;5107367;28;20055;-66
2021/04/12 10:07:58;;;;;;;2.33;0.50;;;6.70;70.80;;;;;;5108348;28;20370;-66
2021/04/12 10:10:55;;;;;;;1.63;0.70;;;6.90;73.20;;;;;;5106754;28;20042;-66
2021/04/12 10:13:27;;;;;;;2.80;0.40;;;7.10;73.50;;;;;;5086213;28;20072;-66
2021/04/12 10:16:02;;;;;;;;;;;7.20;72.10;;;;;;5086930;28;20122;-66
2021/04/12 10:18:42;;;;;;;2.65;0.68;;;7.40;72.70;;;;;;5091150;28;20422;-66
2021/04/12 10:21:26;;;;;;;3.22;1.00;;;7.50;72.10;;;;;;5106619;28;20067;-66
2021/04/12 10:24:19;;;;;;;2.90;1.00;;;7.70;71.10;;;;;;5105314;28;20544;-66
2021/04/12 10:26:55;;;;;;;1.83;0.55;;;7.80;71.60;;;;;;5101431;28;20484;-66
2021/04/12 10:29:52;;;;;;;2.92;0.68;;;8.20;70.20;;;;;;5109777;28;20069;-66
2021/04/12 10:32:24;;;;;;;1.55;0.77;;;8.30;67.10;;;;;;5089610;28;20043;-66
2021/04/12 10:34:58;;;;;;;3.20;0.68;;;8.50;68.30;;;;;;5110482;28;20047;-66
2021/04/12 10:38:00;;;;;;;1.52;0.70;;;8.60;66.80;;;;;;5112390;28;20435;-66
2021/04/12 10:40:31;;;;;;;0.90;0.70;;;8.80;65.70;;;;;;5107890;28;20067;-66
2021/04/12 10:43:00;;;;;;;2.20;0.77;;;9.20;65.20;;;;;;5094211;28;20449;-66
2021/04/12 10:45:34;;;;;;;2.55;0.55;;;9.40;63.10;;;;;;5111529;28;20682;-66
2021/04/12 10:48:34;;;;;;;3.13;1.00;;;9.50;63.20;;;;;;5099305;28;20036;-66
2021/04/12 10:51:11;;;;;;;2.25;0.82;;;9.60;63.80;;;;;;5097845;28;20042;-66
2021/04/12 10:54:13;;;;;;;0.85;0.45;;;9.70;62.90;;;;;;5109638;28;20443;-66
2021/04/12 10:57:08;;;;;;;3.17;0.70;;;9.50;64.00;;;;;;5110124;28;20035;-66
2021/04/12 11:00:08;;;;;;;2.67;1.00;;;9.10;60.80;;;;;;5089471;28;20528;-66
2021/04/12 11:02:57;;;;;;;1.77;0.60;;;8.90;66.60;;;;;;5110630;28;20043;-66
2021/04/12 11:05:27;;;;;;;3.47;0.82;;;8.20;63.90;;;;;;5104556;28;20040;-66
2021/04/12 11:08:23;;;;;;;2.85;0.70;;;7.90;64.90;;;;;;5109917;28;20484;-66
2021/04/12 11:11:36;;;;;;;1.77;0.45;;;7.70;69.20;;;;;;5104943;28;20031;-66
2021/04/12 11:14:44;;;;;;;1.73;0.40;;;7.60;71.60;;;;;;5098222;28;20066;-66
2021/04/12 11:17:25;;;;;;;3.13;1.00;;;7.40;71.70;;;;;;5004213;28;20498;-66
2021/04/12 11:20:13;;;;;;;2.47;0.75;;;7.30;71.90;;;;;;5097193;28;20054;-66
2021/04/12 11:22:42;;;;;;;2.72;1.02;;;7.30;74.30;;;;;;5103439;28;20050;-66
2021/04/12 11:25:42;;;;;;;6.43;1.13;;;7.60;74.00;;;;;;5107977;28;20057;-66
2021/04/12 11:28:13;;;;;;;3.28;1.10;;;7.90;72.80;;;;;;5098857;28;20052;-66
2021/04/12 11:30:54;;;;;;;2.00;0.60;;;8.10;73.20;;;;;;5099867;28;20122;-66
2021/04/12 11:33:47;;;;;;;1.65;0.75;;;8.20;71.40;;;;;;5099665;27;20039;-66
2021/04/12 11:36:38;;;;;;;1.35;0.60;;;8.60;70.20;;;;;;5099227;27;20138;-66
2021/04/12 11:39:14;;;;;;;2.65;1.25;;;8.90;67.50;;;;;;5098690;28;20032;-66
2021/04/12 11:41:49;;;;;;;3.08;1.48;;;9.10;67.10;;;;;;5101495;28;20074;-66
2021/04/12 11:44:38;;;;;;;1.90;0.90;;;9.20;66.00;;;;;;5108805;28;20512;-66
2021/04/12 11:47:13;;;;;;;3.30;1.27;;;9.40;66.20;;;;;;5064086;28;21581;-67
2021/04/12 11:50:04;;;;;;;1.17;0.50;;;9.60;64.40;;;;;;5111615;27;20043;-67
2021/04/12 11:52:39;;;;;;;2.63;0.40;;;9.80;63.00;;;;;;5110938;27;20100;-66
2021/04/12 11:55:13;;;;;;;2.92;0.80;;;9.30;64.80;;;;;;5106179;28;20146;-66
2021/04/12 11:58:11;;;;;;;2.35;0.65;;;8.60;67.70;;;;;;5078153;28;20075;-66
2021/04/12 12:01:18;;;;;;;1.80;0.40;;;8.10;69.70;;;;;;5104625;28;20047;-66
2021/04/12 12:04:06;;;;;;;1.85;0.63;;;7.60;72.70;;;;;;5104512;28;20089;-66
2021/04/12 12:07:08;;;;;;;0.82;0.38;;;7.10;73.50;;;;;;5092285;28;20119;-66
2021/04/12 12:09:39;;;;;;;2.03;0.40;;;6.90;76.10;;;;;;5094081;27;20112;-66
2021/04/12 12:12:25;;;;;;;1.35;0.40;;;6.80;76.60;;;;;;5110543;27;20067;-66
2021/04/12 12:15:06;;;;;;;0.63;0.57;;;7.00;77.50;;;;;;5080926;28;20479;-66
2021/04/12 12:18:06;;;;;;;0.65;0.52;;;7.30;76.20;;;;;;5104784;28;20522;-66
2021/04/12 12:20:47;;;;;;;3.13;0.40;;;7.50;74.90;;;;;;5105308;28;20050;-66
2021/04/12 12:23:35;;;;;;;3.35;0.40;;;7.90;73.30;;;;;;5078739;28;20491;-66
2021/04/12 12:26:04;;;;;;;1.77;0.47;;;8.20;72.20;;;;;;5102118;27;20536;-66
2021/04/12 12:28:37;;;;;;;2.05;0.40;;;8.40;72.20;;;;;;5104148;28;20050;-66
2021/04/12 12:34:08;;;;;;;3.03;0.70;;;8.90;69.70;;;;;;5100175;28;20111;-66
2021/04/12 12:36:59;;;;;;;2.47;0.50;;;8.80;66.90;;;;;;5107748;27;20495;-66
2021/04/12 12:39:45;;;;;;;2.42;0.75;;;8.60;70.00;;;;;;5104609;28;20065;-66
2021/04/12 12:42:20;;;;;;;3.15;0.60;;;8.30;69.30;;;;;;5106338;28;20134;-66
2021/04/12 12:44:46;;;;;;;1.35;0.55;;;8.40;72.00;;;;;;5106675;28;20040;-66
2021/04/12 12:47:20;;;;;;;1.98;0.63;;;8.40;71.60;;;;;;5105340;28;20045;-65
2021/04/12 12:49:59;;;;;;;2.70;0.60;;;8.60;72.20;;;;;;5108446;28;20043;-66
2021/04/12 12:52:32;;;;;;;0.80;0.47;;;8.80;69.10;;;;;;5104567;28;20320;-66
2021/04/12 12:55:02;;;;;;;2.70;0.82;;;8.50;67.80;;;;;;5097136;28;20099;-66
2021/04/12 12:57:35;;;;;;;1.17;0.63;;;8.40;70.20;;;;;;5106157;28;20028;-66
2021/04/12 13:00:18;;;;;;;1.85;0.55;;;8.20;69.70;;;;;;5086683;27;20057;-66
2021/04/12 13:02:45;;;;;;;2.75;0.70;;;8.20;69.10;;;;;;5106582;28;20031;-66
2021/04/12 13:05:22;;;;;;;0.85;0.40;;;8.20;73.00;;;;;;5085174;28;20040;-66
2021/04/12 13:07:49;;;;;;;0.98;0.50;;;8.40;72.30;;;;;;5099300;28;20038;-66
2021/04/12 13:10:25;;;;;;;1.75;0.50;;;8.60;70.50;;;;;;5098726;28;20388;-66
2021/04/12 13:12:52;;;;;;;2.45;0.80;;;8.70;69.20;;;;;;5098914;28;20042;-66
2021/04/12 13:15:36;;;;;;;2.92;0.73;;;8.70;70.00;;;;;;5096442;28;20040;-66
2021/04/12 13:18:24;;;;;;;2.50;0.70;;;8.90;69.20;;;;;;5100134;27;20102;-66
2021/04/12 13:20:55;;;;;;;1.77;0.68;;;9.20;66.90;;;;;;5100567;28;20044;-66
2021/04/12 13:23:29;;;;;;;1.60;0.35;;;9.40;65.60;;;;;;5100535;28;20493;-66
2021/04/12 13:25:57;;;;;;;0.90;0.47;;;9.50;65.00;;;;;;5100117;28;20085;-66
2021/04/12 13:28:41;;;;;;;2.92;0.60;;;9.60;66.60;;;;;;5099129;28;20118;-66
2021/04/12 13:31:16;;;;;;;1.48;0.40;;;9.80;61.70;;;;;;5101818;28;20474;-66
2021/04/12 13:33:54;;;;;;;2.55;1.00;;;10.10;63.50;;;;;;5095442;28;20221;-66
2021/04/12 13:36:31;;;;;;;1.88;0.60;;;10.30;61.50;;;;;;5079545;28;20044;-66
2021/04/12 13:39:07;;;;;;;2.78;0.75;;;10.10;63.00;;;;;;5083251;28;20123;-66
2021/04/12 13:41:39;;;;;;;1.95;0.50;;;10.00;62.40;;;;;;5097860;28;20051;-66
2021/04/12 13:44:14;;;;;;;1.83;0.57;;;9.60;59.00;;;;;;5100001;28;20040;-66
2021/04/12 13:47:13;;;;;;;0.90;0.40;;;9.10;57.80;;;;;;5098213;28;20084;-66
2021/04/12 13:49:50;;;;;;;2.47;0.50;;;9.10;63.20;;;;;;5097883;28;20157;-66
2021/04/12 13:52:24;;;;;;;2.40;0.55;;;9.40;64.10;;;;;;5100633;28;21592;-66
2021/04/12 13:55:02;;;;;;;2.03;0.60;;;9.60;63.70;;;;;;5111171;22;20080;-73
2021/04/12 13:57:50;;;;;;;1.08;0.40;;;9.90;59.50;;;;;;5051451;28;20057;-73
2021/04/12 14:00:30;;;;;;;0.50;0.30;;;10.10;57.00;;;;;;5035391;28;20124;-76
2021/04/12 14:03:21;;;;;;;1.45;0.50;;;10.50;59.60;;;;;;5041136;28;20127;-74
2021/04/12 14:05:57;;;;;;;2.37;0.50;;;10.60;56.00;;;;;;5045526;28;20493;-73
2021/04/12 14:08:26;;;;;;;1.90;0.50;;;10.80;60.00;;;;;;5066508;28;20036;-72
2021/04/12 14:10:51;;;;;;;1.38;0.60;;;10.90;59.00;;;;;;5061629;28;20032;-73
2021/04/12 14:13:23;;;;;;;0.68;0.30;;;10.80;57.10;;;;;;5058783;28;20032;-74
2021/04/12 14:16:05;;;;;;;0.50;0.30;;;10.50;55.60;;;;;;5071170;28;20474;-74
2021/04/12 14:18:37;;;;;;;1.77;0.47;;;10.00;58.10;;;;;;5062583;28;20469;-74
2021/04/12 14:21:10;;;;;;;1.13;0.40;;;9.50;60.20;;;;;;5059714;28;20087;-74
2021/04/12 14:23:43;;;;;;;1.63;0.52;;;9.20;65.80;;;;;;5041978;28;20098;-73
2021/04/12 14:26:20;;;;;;;1.48;0.43;;;8.90;63.40;;;;;;5060701;28;20166;-74
2021/04/12 14:28:48;;;;;;;2.40;0.50;;;8.60;65.20;;;;;;5042685;28;20051;-73
2021/04/12 14:31:26;;;;;;;1.90;0.40;;;9.00;68.00;;;;;;5045161;28;20040;-73
2021/04/12 14:34:01;;;;;;;1.77;0.30;;;9.20;65.00;;;;;;5059302;28;20044;-73
2021/04/12 14:36:30;;;;;;;1.23;0.40;;;9.50;64.80;;;;;;5057770;28;20526;-73